Time;durP1;ratioP1;P1;durP2;ratioP2;P2;SDS_P1;SDS_P2;PMS_P1;PMS_P2;Temp;Humidity;BMP_temperature;BMP_pressure;BME280_temperature;BME280_humidity;BME280_pressure;Samples;Min_cycle;Max_cycle;Signal;HPM_P1;HPM_P2
2023/01/01 00:01:17;;;;;;;17.35;12.52;;;15.20;99.90;;;;;;5092093;28;20237;-59
2023/01/01 00:03:49;;;;;;;17.90;12.60;;;15.30;99.90;;;;;;5092315;28;20281;-59
2023/01/01 00:06:16;;;;;;;16.88;11.88;;;15.30;99.90;;;;;;5092190;28;20200;-60
2023/01/01 00:08:42;;;;;;;15.13;11.45;;;15.30;99.90;;;;;;5091848;28;20208;-59
2023/01/01 00:11:10;;;;;;;15.00;12.23;;;15.30;99.90;;;;;;5091841;28;20207;-60
2023/01/01 00:13:39;;;;;;;17.20;12.25;;;15.30;99.90;;;;;;5096417;28;20236;-59
2023/01/01 00:16:06;;;;;;;16.65;11.80;;;15.20;99.90;;;;;;5096245;28;20211;-59
2023/01/01 00:18:33;;;;;;;17.25;11.32;;;15.20;99.90;;;;;;5096403;28;20207;-59
2023/01/01 00:21:06;;;;;;;19.00;13.57;;;15.20;99.90;;;;;;5096027;28;20727;-59
2023/01/01 00:23:34;;;;;;;22.03;15.80;;;15.20;99.90;;;;;;5096384;28;20235;-59
2023/01/01 00:26:01;;;;;;;16.57;12.87;;;15.20;99.90;;;;;;5096083;28;20671;-58
2023/01/01 00:28:28;;;;;;;14.87;11.97;;;15.20;99.90;;;;;;5096292;28;20698;-60
2023/01/01 00:30:55;;;;;;;17.17;11.70;;;15.10;99.90;;;;;;5096245;28;20212;-62
2023/01/01 00:33:21;;;;;;;15.67;10.80;;;15.10;99.90;;;;;;5096408;28;20235;-62
2023/01/01 00:35:48;;;;;;;13.73;10.03;;;15.00;99.90;;;;;;5097480;28;20212;-59
2023/01/01 00:38:16;;;;;;;14.17;10.53;;;15.00;99.90;;;;;;5095764;28;20224;-59
2023/01/01 00:40:43;;;;;;;15.23;11.43;;;15.10;99.90;;;;;;5095907;28;20569;-59
2023/01/01 00:43:10;;;;;;;15.03;10.70;;;15.00;99.90;;;;;;5095495;28;20557;-59
2023/01/01 00:45:37;;;;;;;12.63;9.90;;;15.00;99.90;;;;;;5096134;28;20204;-59
2023/01/01 00:48:04;;;;;;;12.80;8.97;;;15.00;99.90;;;;;;5095756;28;20664;-60
2023/01/01 00:50:31;;;;;;;13.07;9.30;;;15.00;99.90;;;;;;5095555;28;20200;-60
2023/01/01 00:52:57;;;;;;;11.87;8.97;;;15.00;99.90;;;;;;5096757;28;20235;-60
2023/01/01 00:55:25;;;;;;;11.73;8.60;;;15.00;99.90;;;;;;5096134;28;20204;-59
2023/01/01 00:57:52;;;;;;;10.87;8.77;;;15.00;99.90;;;;;;5095517;28;20238;-59
2023/01/01 01:00:19;;;;;;;12.13;8.35;;;15.00;99.90;;;;;;5095458;28;20204;-59
2023/01/01 01:02:45;;;;;;;10.20;7.88;;;15.00;99.90;;;;;;5095432;28;20204;-60
2023/01/01 01:05:12;;;;;;;8.20;6.60;;;15.00;99.90;;;;;;5094995;28;20466;-59
2023/01/01 01:07:39;;;;;;;9.43;6.33;;;15.00;99.90;;;;;;5095318;28;20201;-60
2023/01/01 01:10:08;;;;;;;8.27;6.13;;;15.00;99.90;;;;;;5094956;28;20576;-60
2023/01/01 01:12:36;;;;;;;8.30;6.30;;;15.00;99.90;;;;;;5095105;28;20211;-59
2023/01/01 01:15:05;;;;;;;8.23;6.07;;;14.80;99.90;;;;;;5095172;28;20228;-59
2023/01/01 01:17:32;;;;;;;9.73;5.83;;;15.10;99.90;;;;;;5095192;28;20220;-60
2023/01/01 01:19:59;;;;;;;9.73;6.00;;;15.10;99.90;;;;;;5095147;28;20208;-59
2023/01/01 01:22:26;;;;;;;9.38;5.43;;;15.10;99.90;;;;;;5095190;28;20204;-60
2023/01/01 01:24:53;;;;;;;8.88;5.57;;;15.10;99.90;;;;;;5094986;28;20780;-59
2023/01/01 01:27:20;;;;;;;8.68;5.72;;;15.10;99.90;;;;;;5094996;28;20215;-60
2023/01/01 01:29:48;;;;;;;8.57;5.55;;;15.10;99.90;;;;;;5094781;28;20208;-59
2023/01/01 01:32:14;;;;;;;7.67;5.47;;;15.10;99.90;;;;;;5094600;28;20211;-59
2023/01/01 01:34:41;;;;;;;7.55;5.40;;;15.10;99.90;;;;;;5095015;28;20252;-57
2023/01/01 01:37:08;;;;;;;8.05;6.03;;;15.10;99.90;;;;;;5094401;28;20235;-58
2023/01/01 01:39:35;;;;;;;9.05;6.05;;;15.10;99.90;;;;;;5094653;28;20204;-58
2023/01/01 01:42:02;;;;;;;8.00;6.03;;;15.10;99.90;;;;;;5094572;28;20580;-58
2023/01/01 01:44:55;;;;;;;7.43;5.93;;;15.10;99.90;;;;;;5094567;28;20259;-58
2023/01/01 01:47:26;;;;;;;8.13;6.03;;;15.10;99.90;;;;;;5094371;28;20211;-60
2023/01/01 01:49:57;;;;;;;6.80;5.67;;;15.10;99.90;;;;;;5094355;28;20227;-60
2023/01/01 01:52:24;;;;;;;7.97;6.30;;;15.10;99.90;;;;;;5094324;28;20687;-60
2023/01/01 01:54:51;;;;;;;7.93;5.97;;;15.10;99.90;;;;;;5094099;28;20726;-60
2023/01/01 01:57:19;;;;;;;8.77;6.70;;;15.10;99.90;;;;;;5094181;28;20224;-59
2023/01/01 01:59:52;;;;;;;8.30;6.43;;;15.10;99.90;;;;;;5094263;28;20208;-59
2023/01/01 02:02:27;;;;;;;8.63;6.30;;;15.10;99.90;;;;;;5094356;28;20266;-63
2023/01/01 02:04:55;;;;;;;9.63;6.90;;;15.00;99.90;;;;;;5094065;28;20231;-60
2023/01/01 02:07:24;;;;;;;11.80;7.07;;;15.00;99.90;;;;;;5093917;28;20236;-60
2023/01/01 02:09:51;;;;;;;9.30;7.43;;;15.00;99.90;;;;;;5093610;28;20205;-59
2023/01/01 02:12:18;;;;;;;10.00;7.87;;;14.90;99.90;;;;;;5094021;28;20215;-59
2023/01/01 02:14:45;;;;;;;9.60;7.70;;;14.90;99.90;;;;;;5094317;28;20224;-60
2023/01/01 02:17:21;;;;;;;10.70;7.60;;;14.80;99.90;;;;;;5093888;28;20224;-60
2023/01/01 02:20:03;;;;;;;9.77;7.10;;;14.80;99.90;;;;;;5093837;28;20589;-60
2023/01/01 02:22:38;;;;;;;11.93;8.50;;;14.80;99.90;;;;;;5093563;28;20208;-60
2023/01/01 02:25:12;;;;;;;10.67;7.77;;;14.80;99.90;;;;;;5093602;28;20285;-60
2023/01/01 02:27:50;;;;;;;13.63;8.50;;;14.70;99.90;;;;;;5093802;28;20210;-60
2023/01/01 02:30:18;;;;;;;9.93;8.20;;;14.70;99.90;;;;;;5093953;28;20481;-60
2023/01/01 02:32:48;;;;;;;11.97;8.70;;;14.70;99.90;;;;;;5093662;28;20200;-59
2023/01/01 02:35:35;;;;;;;12.20;8.43;;;14.70;99.90;;;;;;5092751;28;20266;-60
2023/01/01 02:38:06;;;;;;;11.47;8.10;;;14.60;99.90;;;;;;5093568;28;20683;-60
2023/01/01 02:40:36;;;;;;;10.50;8.50;;;14.60;99.90;;;;;;5093465;28;20246;-60
2023/01/01 02:43:03;;;;;;;10.53;7.60;;;14.60;99.90;;;;;;5093501;28;20212;-60
2023/01/01 02:45:32;;;;;;;10.30;7.23;;;14.60;99.90;;;;;;5093512;28;20287;-60
2023/01/01 02:48:03;;;;;;;9.20;6.50;;;14.50;99.90;;;;;;5093310;28;20201;-59
2023/01/01 02:50:29;;;;;;;6.50;4.97;;;14.50;99.90;;;;;;5093101;28;20212;-59
2023/01/01 02:53:17;;;;;;;8.33;5.17;;;14.30;99.90;;;;;;5093472;28;20204;-60
2023/01/01 02:55:55;;;;;;;6.03;4.67;;;14.30;99.90;;;;;;5093281;28;20216;-59
2023/01/01 03:01:23;;;;;;;7.43;5.67;;;14.40;99.90;;;;;;5093034;28;20214;-59
2023/01/01 03:04:01;;;;;;;9.87;5.83;;;14.30;99.90;;;;;;5092754;28;20602;-60
2023/01/01 03:06:37;;;;;;;12.00;8.37;;;14.40;99.90;;;;;;5093144;28;20621;-59
2023/01/01 03:09:13;;;;;;;10.60;6.20;;;14.30;99.90;;;;;;5092602;28;20215;-59
2023/01/01 03:11:48;;;;;;;6.77;5.30;;;14.40;99.90;;;;;;5093090;28;20204;-59
2023/01/01 03:14:21;;;;;;;9.70;6.23;;;14.30;99.90;;;;;;5092732;28;20227;-59
2023/01/01 03:16:53;;;;;;;8.30;5.83;;;14.40;99.90;;;;;;5093023;28;20194;-61
2023/01/01 03:19:23;;;;;;;8.23;6.67;;;14.30;99.90;;;;;;5092865;28;20215;-59
2023/01/01 03:21:55;;;;;;;6.23;4.70;;;14.40;99.90;;;;;;5092706;28;20227;-59
2023/01/01 03:24:26;;;;;;;6.70;5.07;;;14.40;99.90;;;;;;5092764;28;20303;-59
2023/01/01 03:26:55;;;;;;;10.00;5.03;;;14.40;99.90;;;;;;5092732;28;20215;-59
2023/01/01 03:29:24;;;;;;;6.27;5.10;;;14.30;99.90;;;;;;5092674;28;20208;-59
2023/01/01 03:31:56;;;;;;;5.43;4.33;;;14.40;99.90;;;;;;5093026;28;20235;-60
2023/01/01 03:34:27;;;;;;;6.90;4.20;;;14.30;99.90;;;;;;5092585;28;20606;-60
2023/01/01 03:36:58;;;;;;;14.10;8.90;;;14.30;99.90;;;;;;5092546;28;20598;-59
2023/01/01 03:39:29;;;;;;;11.03;8.70;;;14.40;99.90;;;;;;5092299;28;20217;-60
2023/01/01 03:42:01;;;;;;;9.70;7.07;;;14.30;99.90;;;;;;5092693;28;20204;-60
2023/01/01 03:44:33;;;;;;;14.90;9.00;;;14.40;99.90;;;;;;5092496;28;20224;-60
2023/01/01 03:47:01;;;;;;;566.07;414.30;;;14.40;99.90;;;;;;5092553;28;20211;-60
2023/01/01 03:49:30;;;;;;;250.63;187.00;;;14.40;99.90;;;;;;5092364;28;20210;-60
2023/01/01 03:52:07;;;;;;;40.37;26.40;;;14.40;99.90;;;;;;5092459;28;20477;-59
2023/01/01 03:54:43;;;;;;;14.30;10.50;;;14.40;99.90;;;;;;5092168;28;20605;-60
2023/01/01 03:57:19;;;;;;;56.17;37.30;;;14.30;99.90;;;;;;5092327;28;20235;-60
2023/01/01 03:59:53;;;;;;;16.27;10.10;;;14.30;99.90;;;;;;5092493;28;20683;-60
2023/01/01 04:02:28;;;;;;;7.43;5.00;;;14.20;99.90;;;;;;5092282;28;20250;-60
2023/01/01 04:04:57;;;;;;;8.93;5.83;;;14.20;99.90;;;;;;5092362;28;20626;-60
2023/01/01 04:07:24;;;;;;;5.80;4.13;;;14.20;99.90;;;;;;5092187;28;20227;-60
2023/01/01 04:09:53;;;;;;;8.17;4.03;;;14.20;99.90;;;;;;5091973;28;20220;-59
2023/01/01 04:12:21;;;;;;;5.40;3.53;;;14.20;99.90;;;;;;5092416;28;20203;-60
2023/01/01 04:14:48;;;;;;;7.87;3.60;;;14.20;99.90;;;;;;5092033;28;20220;-59
2023/01/01 04:17:15;;;;;;;4.90;3.03;;;14.20;99.90;;;;;;5092172;28;20204;-59
2023/01/01 04:19:43;;;;;;;5.73;3.50;;;14.20;99.90;;;;;;5092071;28;20215;-58
2023/01/01 04:22:09;;;;;;;4.93;3.87;;;14.10;99.90;;;;;;5092042;28;20254;-58
2023/01/01 04:24:36;;;;;;;6.80;4.10;;;14.20;99.90;;;;;;5092031;28;20228;-59
2023/01/01 04:27:04;;;;;;;5.87;4.27;;;14.10;99.90;;;;;;5092050;28;20208;-59
2023/01/01 04:29:31;;;;;;;7.10;5.30;;;14.10;99.90;;;;;;5091684;28;20200;-59
2023/01/01 04:31:58;;;;;;;6.47;3.53;;;14.10;99.90;;;;;;5092034;28;20684;-59
2023/01/01 04:34:25;;;;;;;6.17;3.17;;;14.10;99.90;;;;;;5091799;28;20243;-59
2023/01/01 04:36:53;;;;;;;5.20;3.90;;;14.00;99.90;;;;;;5091920;28;20227;-59
2023/01/01 04:39:19;;;;;;;28.93;22.13;;;14.10;99.90;;;;;;5091700;28;20235;-58
2023/01/01 04:41:47;;;;;;;4.20;3.27;;;14.10;99.90;;;;;;5091722;28;20617;-58
2023/01/01 04:44:13;;;;;;;4.10;3.00;;;14.10;99.90;;;;;;5091696;28;20618;-58
2023/01/01 04:46:41;;;;;;;4.80;3.00;;;14.00;99.90;;;;;;5091806;28;20208;-58
2023/01/01 04:49:08;;;;;;;5.60;3.30;;;14.00;99.90;;;;;;5091864;28;20201;-59
2023/01/01 04:51:34;;;;;;;4.90;2.93;;;14.00;99.90;;;;;;5091784;28;20209;-59
2023/01/01 04:54:03;;;;;;;5.57;3.57;;;14.10;99.90;;;;;;5092119;28;20228;-59
2023/01/01 04:56:29;;;;;;;4.73;3.50;;;14.10;99.90;;;;;;5091891;28;20580;-59
2023/01/01 04:58:57;;;;;;;4.87;3.10;;;14.00;99.90;;;;;;5094848;28;20224;-59
2023/01/01 05:01:25;;;;;;;5.77;3.33;;;14.00;99.90;;;;;;5095898;28;20204;-59
2023/01/01 05:03:53;;;;;;;3.93;2.83;;;14.00;99.90;;;;;;5095826;28;20618;-59
2023/01/01 05:06:19;;;;;;;4.30;2.97;;;14.00;99.90;;;;;;5095542;28;20204;-59
2023/01/01 05:08:49;;;;;;;4.60;3.20;;;14.00;99.90;;;;;;5095279;28;20478;-59
2023/01/01 05:11:18;;;;;;;4.57;3.10;;;14.00;99.90;;;;;;5095219;28;20212;-59
2023/01/01 05:13:47;;;;;;;5.30;3.33;;;14.00;99.90;;;;;;5095558;28;20232;-58
2023/01/01 05:16:16;;;;;;;4.50;3.03;;;14.00;99.90;;;;;;5095365;28;20652;-58
2023/01/01 05:18:43;;;;;;;5.37;3.07;;;14.00;99.90;;;;;;5095383;28;20216;-59
2023/01/01 05:21:12;;;;;;;5.13;3.43;;;14.00;99.90;;;;;;5095387;28;20216;-59
2023/01/01 05:23:39;;;;;;;4.47;2.90;;;14.00;99.90;;;;;;5094903;28;20224;-58
2023/01/01 05:26:10;;;;;;;4.00;3.10;;;14.00;99.90;;;;;;5095678;28;20208;-59
2023/01/01 05:28:39;;;;;;;5.47;3.47;;;14.00;99.90;;;;;;5095545;28;20714;-58
2023/01/01 05:31:08;;;;;;;4.47;2.87;;;13.90;99.90;;;;;;5095131;28;20208;-59
2023/01/01 05:33:35;;;;;;;5.70;3.33;;;13.90;99.90;;;;;;5095598;28;20236;-59
2023/01/01 05:36:03;;;;;;;4.97;3.03;;;13.90;99.90;;;;;;5095706;28;20586;-60
2023/01/01 05:38:29;;;;;;;6.40;2.80;;;13.90;99.90;;;;;;5095269;28;20232;-62
2023/01/01 05:40:56;;;;;;;4.20;3.07;;;13.90;99.90;;;;;;5095195;28;20204;-59
2023/01/01 05:43:23;;;;;;;4.27;2.90;;;14.00;99.90;;;;;;5095319;28;20231;-59
2023/01/01 05:45:59;;;;;;;7.20;3.07;;;13.90;99.90;;;;;;5095657;28;20200;-59
2023/01/01 05:48:26;;;;;;;5.03;2.70;;;13.90;99.90;;;;;;5096007;28;20203;-58
2023/01/01 05:50:52;;;;;;;5.50;3.00;;;13.90;99.90;;;;;;5095788;28;20219;-59
2023/01/01 05:53:19;;;;;;;5.60;2.87;;;13.90;99.90;;;;;;5096166;28;20663;-59
2023/01/01 05:55:52;;;;;;;5.67;2.83;;;13.90;99.90;;;;;;5096406;28;20208;-58
2023/01/01 05:58:19;;;;;;;4.77;2.40;;;13.90;99.90;;;;;;5095950;28;20215;-59
2023/01/01 06:00:46;;;;;;;5.23;2.47;;;14.00;99.90;;;;;;5096247;28;20650;-58
2023/01/01 06:03:14;;;;;;;4.70;2.77;;;14.00;99.90;;;;;;5096221;28;20204;-58
2023/01/01 06:05:41;;;;;;;4.73;2.80;;;14.00;99.90;;;;;;5096374;28;20579;-59
2023/01/01 06:08:08;;;;;;;5.60;3.00;;;14.00;99.90;;;;;;5096602;28;20211;-59
2023/01/01 06:10:34;;;;;;;3.97;3.03;;;14.00;99.90;;;;;;5094933;28;20822;-59
2023/01/01 06:13:01;;;;;;;4.13;2.43;;;14.00;99.90;;;;;;5095409;28;20212;-58
2023/01/01 06:15:28;;;;;;;3.83;2.80;;;14.00;99.90;;;;;;5095121;28;20211;-59
2023/01/01 06:17:55;;;;;;;3.87;2.70;;;14.10;99.90;;;;;;5094812;28;20220;-58
2023/01/01 06:20:23;;;;;;;4.53;2.40;;;14.10;99.90;;;;;;5094957;28;20211;-59
2023/01/01 06:22:50;;;;;;;3.07;2.20;;;14.00;99.90;;;;;;5095416;28;20706;-59
2023/01/01 06:25:16;;;;;;;3.40;2.33;;;14.10;99.90;;;;;;5095648;28;20247;-58
2023/01/01 06:27:43;;;;;;;3.20;2.40;;;14.10;99.90;;;;;;5096512;28;20254;-59
2023/01/01 06:30:10;;;;;;;5.13;2.67;;;14.20;99.90;;;;;;5095280;28;20207;-59
2023/01/01 06:32:37;;;;;;;3.07;2.33;;;14.20;99.90;;;;;;5094968;28;20204;-58
2023/01/01 06:35:04;;;;;;;5.40;2.33;;;14.20;99.90;;;;;;5094229;28;20716;-59
2023/01/01 06:37:32;;;;;;;4.30;3.10;;;14.10;99.90;;;;;;5094388;28;20205;-59
2023/01/01 06:39:59;;;;;;;4.07;3.03;;;14.10;99.90;;;;;;5094155;28;20602;-59
2023/01/01 06:42:25;;;;;;;5.13;2.60;;;14.10;99.90;;;;;;5094319;28;20227;-59
2023/01/01 06:44:52;;;;;;;3.17;2.47;;;14.20;99.90;;;;;;5093979;28;20228;-59
2023/01/01 06:47:19;;;;;;;4.50;3.20;;;14.10;99.90;;;;;;5094491;28;20587;-58
2023/01/01 06:49:45;;;;;;;4.77;3.13;;;14.00;99.90;;;;;;5094000;28;20295;-59
2023/01/01 06:52:12;;;;;;;4.87;2.63;;;14.10;99.90;;;;;;5094356;28;20208;-59
2023/01/01 06:54:41;;;;;;;3.77;2.53;;;14.10;99.90;;;;;;5093698;28;20227;-59
2023/01/01 06:57:07;;;;;;;3.67;2.37;;;14.10;99.90;;;;;;5093755;28;20208;-59
2023/01/01 06:59:34;;;;;;;3.23;2.90;;;14.00;99.90;;;;;;5093629;28;20226;-59
2023/01/01 07:02:01;;;;;;;4.53;2.47;;;14.10;99.90;;;;;;5093738;28;20739;-59
2023/01/01 07:04:28;;;;;;;4.13;2.93;;;14.00;99.90;;;;;;5093322;28;20232;-58
2023/01/01 07:06:54;;;;;;;3.80;2.40;;;14.10;99.90;;;;;;5093285;28;20208;-59
2023/01/01 07:09:21;;;;;;;5.70;2.50;;;14.10;99.90;;;;;;5093368;28;20211;-59
2023/01/01 07:11:49;;;;;;;6.10;3.13;;;14.00;99.90;;;;;;5093280;28;20763;-58
2023/01/01 07:14:16;;;;;;;4.50;2.50;;;14.00;99.90;;;;;;5093311;28;20228;-58
2023/01/01 07:16:42;;;;;;;3.83;2.67;;;14.00;99.90;;;;;;5093406;28;20265;-59
2023/01/01 07:19:09;;;;;;;3.37;2.30;;;14.10;99.90;;;;;;5092946;28;20277;-59
2023/01/01 07:21:42;;;;;;;5.03;2.90;;;14.10;99.90;;;;;;5092538;28;20203;-58
2023/01/01 07:24:11;;;;;;;4.40;2.70;;;14.20;99.90;;;;;;5093178;28;20224;-59
2023/01/01 07:26:38;;;;;;;4.47;2.87;;;14.10;99.90;;;;;;5093046;28;20448;-58
2023/01/01 07:29:07;;;;;;;6.60;2.70;;;14.20;99.90;;;;;;5092860;28;20254;-59
2023/01/01 07:31:34;;;;;;;4.03;3.00;;;14.30;99.90;;;;;;5093020;28;20240;-58
2023/01/01 07:34:01;;;;;;;2.57;2.37;;;14.30;99.90;;;;;;5093490;28;20268;-59
2023/01/01 07:36:27;;;;;;;3.23;2.57;;;14.30;99.90;;;;;;5093216;28;20204;-59
2023/01/01 07:38:54;;;;;;;4.17;2.53;;;14.30;99.90;;;;;;5092852;28;20598;-58
2023/01/01 07:41:21;;;;;;;3.77;2.80;;;14.30;99.90;;;;;;5092976;28;20207;-59
2023/01/01 07:43:48;;;;;;;4.63;2.40;;;14.40;99.90;;;;;;5093152;28;20224;-59
2023/01/01 07:46:17;;;;;;;3.67;2.40;;;14.40;99.90;;;;;;5093054;28;20204;-59
2023/01/01 07:48:44;;;;;;;3.43;2.53;;;14.50;99.90;;;;;;5092870;28;20200;-59
2023/01/01 07:51:11;;;;;;;4.40;2.47;;;14.60;99.90;;;;;;5092680;28;20204;-59
2023/01/01 07:53:38;;;;;;;4.83;2.47;;;14.70;99.90;;;;;;5092634;28;20255;-59
2023/01/01 07:56:05;;;;;;;3.83;2.33;;;14.80;99.90;;;;;;5092991;28;20294;-59
2023/01/01 07:58:32;;;;;;;4.47;2.07;;;14.90;99.90;;;;;;5093368;28;20208;-59
2023/01/01 08:00:59;;;;;;;3.17;1.87;;;14.80;99.90;;;;;;5092912;28;20204;-58
2023/01/01 08:03:27;;;;;;;3.73;2.27;;;15.00;99.90;;;;;;5092726;28;20220;-59
2023/01/01 08:05:53;;;;;;;5.43;2.60;;;15.10;99.90;;;;;;5092525;28;20212;-59
2023/01/01 08:08:20;;;;;;;5.97;2.60;;;15.10;99.90;;;;;;5092787;28;20216;-60
2023/01/01 08:10:47;;;;;;;3.03;2.00;;;15.20;99.90;;;;;;5092743;28;20215;-60
2023/01/01 08:13:13;;;;;;;3.73;2.07;;;15.10;99.90;;;;;;5092728;28;20618;-59
2023/01/01 08:15:40;;;;;;;2.40;2.00;;;15.10;99.90;;;;;;5092689;28;20215;-60
2023/01/01 08:18:07;;;;;;;3.53;2.20;;;15.20;99.90;;;;;;5092844;28;20292;-60
2023/01/01 08:20:35;;;;;;;4.70;2.37;;;15.20;99.90;;;;;;5092177;28;20231;-59
2023/01/01 08:23:01;;;;;;;3.85;2.40;;;15.20;99.90;;;;;;5092869;28;20568;-59
2023/01/01 08:25:28;;;;;;;3.93;2.33;;;15.30;99.90;;;;;;5092699;28;20207;-59
2023/01/01 08:27:55;;;;;;;4.57;2.20;;;15.30;99.90;;;;;;5092564;28;20672;-60
2023/01/01 08:30:22;;;;;;;3.73;2.57;;;15.30;99.90;;;;;;5093084;28;20294;-59
2023/01/01 08:32:48;;;;;;;6.97;3.10;;;15.30;99.90;;;;;;5093686;28;20577;-60
2023/01/01 08:35:15;;;;;;;4.03;2.23;;;15.30;99.90;;;;;;5096161;28;20228;-60
2023/01/01 08:37:43;;;;;;;4.43;2.67;;;15.40;99.90;;;;;;5096634;28;20215;-60
2023/01/01 08:40:12;;;;;;;5.87;2.80;;;15.30;99.90;;;;;;5096350;28;20723;-59
2023/01/01 08:42:39;;;;;;;5.80;2.63;;;15.20;99.90;;;;;;5096658;28;20254;-60
2023/01/01 08:45:07;;;;;;;4.03;2.60;;;15.20;99.90;;;;;;5096589;28;20223;-59
2023/01/01 08:47:34;;;;;;;4.40;2.67;;;15.30;99.90;;;;;;5096304;28;20196;-60
2023/01/01 08:50:01;;;;;;;4.00;2.37;;;15.30;99.90;;;;;;5096167;28;20200;-60
2023/01/01 08:52:28;;;;;;;3.63;2.70;;;15.30;99.90;;;;;;5096951;28;20208;-60
2023/01/01 08:54:56;;;;;;;5.28;2.20;;;15.30;99.90;;;;;;5096175;28;20231;-60
2023/01/01 08:57:22;;;;;;;4.13;2.70;;;15.40;99.90;;;;;;5096214;28;20729;-60
2023/01/01 08:59:49;;;;;;;5.60;2.90;;;15.40;99.90;;;;;;5096255;28;20216;-60
2023/01/01 09:02:16;;;;;;;5.50;2.80;;;15.40;99.90;;;;;;5095769;28;20211;-60
2023/01/01 09:04:42;;;;;;;6.03;2.60;;;15.40;99.90;;;;;;5095769;28;20235;-59
2023/01/01 09:07:09;;;;;;;2.83;2.10;;;15.50;99.90;;;;;;5095849;28;20253;-60
2023/01/01 09:09:36;;;;;;;3.83;2.00;;;15.40;99.90;;;;;;5095422;28;20200;-59
2023/01/01 09:12:07;;;;;;;4.68;2.53;;;15.60;99.90;;;;;;5095955;28;20208;-59
2023/01/01 09:14:34;;;;;;;4.03;1.90;;;15.70;99.90;;;;;;5095476;28;20228;-60
2023/01/01 09:17:00;;;;;;;6.53;2.37;;;15.70;99.90;;;;;;5095667;28;20211;-60
2023/01/01 09:19:27;;;;;;;4.07;2.10;;;15.80;99.90;;;;;;5095916;28;20247;-60
2023/01/01 09:21:54;;;;;;;5.87;1.93;;;15.80;99.90;;;;;;5095803;28;20204;-60
2023/01/01 09:24:21;;;;;;;4.73;2.20;;;15.90;99.90;;;;;;5095399;28;20224;-59
2023/01/01 09:26:48;;;;;;;3.80;1.90;;;16.00;99.90;;;;;;5095419;28;20207;-59
2023/01/01 09:29:19;;;;;;;4.90;3.08;;;16.10;99.90;;;;;;5095392;28;20660;-60
2023/01/01 09:31:46;;;;;;;6.97;2.53;;;16.10;99.90;;;;;;5095260;28;20283;-60
2023/01/01 09:34:13;;;;;;;3.67;2.20;;;16.10;99.90;;;;;;5095230;28;20243;-60
2023/01/01 09:36:40;;;;;;;4.03;2.30;;;16.20;99.90;;;;;;5095718;28;20215;-59
2023/01/01 09:39:06;;;;;;;5.30;2.88;;;16.30;99.90;;;;;;5095210;28;20228;-60
2023/01/01 09:41:58;;;;;;;3.15;2.22;;;16.30;99.90;;;;;;5095145;28;20208;-58
2023/01/01 09:44:43;;;;;;;5.30;2.55;;;16.40;99.90;;;;;;5094522;28;20228;-59
2023/01/01 09:47:22;;;;;;;4.80;2.38;;;16.50;99.90;;;;;;5095558;28;20776;-61
2023/01/01 09:49:51;;;;;;;3.40;2.17;;;16.60;99.90;;;;;;5095972;28;20200;-60
2023/01/01 09:52:19;;;;;;;3.88;2.30;;;16.70;99.90;;;;;;5096223;28;20204;-61
2023/01/01 09:54:55;;;;;;;5.18;1.70;;;16.80;99.90;;;;;;5096176;28;20223;-61
2023/01/01 09:57:28;;;;;;;5.78;2.22;;;17.10;99.90;;;;;;5095726;28;20203;-61
2023/01/01 09:59:58;;;;;;;5.85;2.38;;;17.30;99.90;;;;;;5095396;28;20588;-61
2023/01/01 10:02:43;;;;;;;6.28;2.70;;;17.50;99.90;;;;;;5096316;28;20238;-62
2023/01/01 10:05:21;;;;;;;4.25;2.10;;;17.80;99.90;;;;;;5096414;28;20604;-61
2023/01/01 10:07:53;;;;;;;6.68;2.67;;;17.90;99.90;;;;;;5096250;28;20210;-62
2023/01/01 10:10:31;;;;;;;5.93;2.30;;;18.20;99.90;;;;;;5096495;28;20213;-62
2023/01/01 10:13:06;;;;;;;3.08;1.90;;;18.60;99.90;;;;;;5096220;28;20208;-63
2023/01/01 10:15:39;;;;;;;3.75;2.05;;;18.80;99.90;;;;;;5095878;28;20560;-62
2023/01/01 10:18:17;;;;;;;5.60;2.50;;;19.10;99.90;;;;;;5096753;28;20217;-62
2023/01/01 10:20:48;;;;;;;4.80;2.20;;;19.40;99.90;;;;;;5096134;28;20223;-61
2023/01/01 10:23:19;;;;;;;7.20;3.92;;;19.60;99.90;;;;;;5096240;28;20200;-63
2023/01/01 10:25:46;;;;;;;3.88;2.22;;;19.80;99.90;;;;;;5096277;28;20211;-65
2023/01/01 10:28:19;;;;;;;3.95;1.98;;;20.00;99.90;;;;;;5096091;28;20204;-60
2023/01/01 10:30:47;;;;;;;5.20;2.10;;;20.10;99.90;;;;;;5094971;28;20232;-59
2023/01/01 10:33:14;;;;;;;2.88;2.28;;;20.20;99.90;;;;;;5095045;28;20204;-60
2023/01/01 10:35:45;;;;;;;4.15;2.40;;;20.20;99.90;;;;;;5095791;28;20211;-60
2023/01/01 10:38:22;;;;;;;6.95;2.35;;;20.20;99.90;;;;;;5094794;28;20684;-61
2023/01/01 10:40:49;;;;;;;5.57;2.38;;;20.10;99.90;;;;;;5095294;28;20261;-60
2023/01/01 10:43:16;;;;;;;4.00;2.22;;;20.20;99.90;;;;;;5094489;28;20695;-61
2023/01/01 10:45:46;;;;;;;3.97;2.45;;;20.20;99.90;;;;;;5095207;28;20204;-62
2023/01/01 10:48:17;;;;;;;6.15;2.70;;;20.30;99.90;;;;;;5095744;28;20311;-61
2023/01/01 10:50:48;;;;;;;5.53;2.78;;;20.30;99.90;;;;;;5095959;28;20200;-61
2023/01/01 10:53:27;;;;;;;4.60;2.75;;;20.40;99.90;;;;;;5096473;28;20239;-60
2023/01/01 10:56:04;;;;;;;3.40;2.00;;;20.50;99.90;;;;;;5095240;28;20192;-62
2023/01/01 10:58:42;;;;;;;4.50;2.35;;;20.50;99.90;;;;;;5094871;28;20215;-61
2023/01/01 11:01:10;;;;;;;4.68;2.53;;;20.50;99.90;;;;;;5094350;28;20227;-61
2023/01/01 11:03:57;;;;;;;4.13;2.10;;;20.50;99.90;;;;;;5094494;28;20244;-61
2023/01/01 11:06:26;;;;;;;4.97;2.38;;;20.60;99.90;;;;;;5094689;28;20211;-61
2023/01/01 11:08:55;;;;;;;3.42;2.08;;;20.70;99.90;;;;;;5094231;28;20208;-62
2023/01/01 11:11:27;;;;;;;5.28;2.00;;;20.70;99.90;;;;;;5093720;28;20208;-61
2023/01/01 11:13:56;;;;;;;5.85;3.00;;;20.50;99.90;;;;;;5093624;28;20228;-60
2023/01/01 11:16:23;;;;;;;6.28;2.50;;;20.30;99.90;;;;;;5093846;28;20204;-60
2023/01/01 11:18:51;;;;;;;4.40;1.88;;;20.10;99.90;;;;;;5093910;28;20290;-61
2023/01/01 11:21:23;;;;;;;3.78;2.25;;;20.00;99.90;;;;;;5093709;28;20247;-64
2023/01/01 11:24:07;;;;;;;3.00;1.98;;;19.80;99.90;;;;;;5094709;28;20719;-61
2023/01/01 11:26:33;;;;;;;5.70;2.75;;;19.70;99.90;;;;;;5094056;28;20239;-62
2023/01/01 11:29:03;;;;;;;16.65;12.85;;;19.80;99.90;;;;;;5094567;28;20204;-61
2023/01/01 11:31:35;;;;;;;6.22;2.63;;;19.80;99.90;;;;;;5094138;28;20224;-61
2023/01/01 11:34:12;;;;;;;5.68;2.10;;;19.90;99.90;;;;;;5094112;28;20228;-63
2023/01/01 11:36:39;;;;;;;3.55;2.33;;;19.90;99.90;;;;;;5093339;28;20663;-58
2023/01/01 11:39:17;;;;;;;3.90;2.08;;;20.00;99.90;;;;;;5094679;28;20204;-64
2023/01/01 11:41:47;;;;;;;6.18;2.53;;;20.00;99.90;;;;;;5050955;28;20225;-59
2023/01/01 11:44:25;;;;;;;4.38;2.40;;;20.00;99.90;;;;;;5051788;28;20230;-66
2023/01/01 11:46:52;;;;;;;5.40;2.38;;;20.00;99.90;;;;;;5051117;28;20213;-61
2023/01/01 11:49:25;;;;;;;9.52;2.42;;;20.00;99.90;;;;;;5051072;28;20662;-61
2023/01/01 11:51:55;;;;;;;3.45;2.03;;;19.90;99.90;;;;;;5050720;28;20216;-57
2023/01/01 11:54:36;;;;;;;4.40;1.90;;;19.90;99.90;;;;;;5050672;28;20712;-57
2023/01/01 11:57:09;;;;;;;4.70;1.98;;;19.90;99.90;;;;;;5051198;28;20213;-58
2023/01/01 11:59:45;;;;;;;28.75;21.33;;;19.90;99.90;;;;;;5051335;28;20279;-56
2023/01/01 12:02:15;;;;;;;4.47;2.22;;;19.90;99.90;;;;;;5050662;28;20201;-57
2023/01/01 12:04:50;;;;;;;5.05;2.22;;;19.90;99.90;;;;;;5050523;28;20697;-55
2023/01/01 12:07:20;;;;;;;4.95;2.30;;;19.80;99.90;;;;;;5051564;28;20216;-58
2023/01/01 12:09:52;;;;;;;4.88;2.35;;;19.70;99.90;;;;;;5055342;28;20214;-56
2023/01/01 12:12:27;;;;;;;3.40;2.05;;;19.60;99.90;;;;;;5055361;28;20230;-59
2023/01/01 12:15:02;;;;;;;9.07;2.40;;;19.60;99.90;;;;;;5054813;28;20228;-56
2023/01/01 12:17:35;;;;;;;4.32;2.30;;;19.60;99.90;;;;;;5055130;28;20567;-55
2023/01/01 12:20:10;;;;;;;3.00;1.92;;;19.60;99.90;;;;;;5055037;28;20231;-58
2023/01/01 12:22:37;;;;;;;5.95;2.10;;;19.60;99.90;;;;;;5055253;28;20266;-59
2023/01/01 12:25:05;;;;;;;6.18;2.10;;;19.70;99.90;;;;;;5054851;28;20218;-60
2023/01/01 12:27:43;;;;;;;3.78;1.92;;;19.70;99.90;;;;;;5054909;28;20206;-59
2023/01/01 12:30:19;;;;;;;3.40;2.10;;;19.70;99.90;;;;;;5054766;28;20305;-60
2023/01/01 12:33:16;;;;;;;3.72;2.03;;;19.80;99.90;;;;;;5055354;28;20219;-61
2023/01/01 12:35:59;;;;;;;4.07;2.22;;;19.70;99.90;;;;;;5051754;28;20244;-61
2023/01/01 12:38:46;;;;;;;3.60;1.90;;;19.60;99.90;;;;;;5054814;28;20213;-61
2023/01/01 12:41:26;;;;;;;5.30;2.53;;;19.70;99.90;;;;;;5054894;28;20240;-61
2023/01/01 12:44:03;;;;;;;4.78;2.75;;;19.70;99.90;;;;;;5054953;28;20306;-60
2023/01/01 12:46:46;;;;;;;3.35;1.98;;;19.70;99.90;;;;;;5055025;28;20480;-60
2023/01/01 12:49:50;;;;;;;8.48;2.22;;;19.80;99.90;;;;;;5055973;28;20210;-58
2023/01/01 12:52:30;;;;;;;6.22;2.00;;;19.90;99.90;;;;;;5007046;28;20574;-58
2023/01/01 12:55:23;;;;;;;4.03;1.90;;;20.00;99.90;;;;;;5054725;28;20229;-58
2023/01/01 12:57:57;;;;;;;5.88;2.42;;;20.00;99.90;;;;;;5054659;28;20300;-60
2023/01/01 13:00:24;;;;;;;4.88;2.10;;;20.00;99.90;;;;;;5054201;28;20222;-59